KDKR

Details ICAO KDKR
Name Crockett Houston County
Region United States
Timezone America/Chicago (UTC-5.0)
Plans Departing 5
Arriving 7
Stats Elevation 348 ft / 106 m (AMSL)
Location 31.306929° -95.403830°
Runways 1
Magnetic Variation 2.419° E
Sunrise 2018-05-22 11:23:06 UTC / 2018-05-22 06:23:06 Local
Sunset 2018-05-23 01:16:22 UTC / 2018-05-22 20:16:22 Local
Advertisement - Login to hide

Runways

ID Width Length Bearing (true) Bearing (mag) Surface Threshold Offset Overrun Length
02 75 ft / 23 m 4,031 ft / 1,229 m 21.29° 18.87° Asphalt 0 ft / 0 m 0 ft / 0 m
20 75 ft / 23 m 4,031 ft / 1,229 m 201.29° 198.87° Asphalt 0 ft / 0 m 0 ft / 0 m

Map

Weather


0- 5 10 15 20 25 30 35+ Temperature / ° C

Clouds and Precipitation
Forecast for 2018-05-22 12:00 UTC. Updated an hour ago

Ground ~20,000 ft ~40,000 ft Winds

METAR

KDKR 221210Z AUTO 00000KT 6SM BR SCT001 20/20 A3005 RMK AO2

TAF

Not found

Frequencies

Recorded 118.77 MHz AWOS 3
Unicom 122.90 MHz CTAF
Warning: Do not use this data for real-world aviation or navigation. No guarantee of current accuracy is given.